• Join FlightAware (Why Join?)
  • Login
  • US Flag 
01:46AM EST


 

Airport Tracker/Info


-or-


 

Live Flight TrackerFlight Track Log ✈ SWA3143 ✈ 15-Mar-2014 ✈ KSDF - KTPA

Flight Track Log - Related Links

Times and Time Zones

All times are in EDT time to prevent confusion due to time zone crossing. See the SWA3143 flight status page for this flight to view local times or setup timezone preferences in your user account.

Time Position Orientation Groundspeed Altitude Reporting Facility
EDT Latitude Longitude Course Direction KTS MPH feet Rate Location/Type
04:59PM 38.1192 -85.7306 121° Southeast 183 211 37,000  Level Indianapolis Center
05:00PM 38.0750 -85.6881 143° Southeast 228 262 4,500 -14,226 Descending Indianapolis Center
05:01PM 38.0736 -85.5886 91° East 272 313 7,600 3,024 Climbing Indianapolis Center
05:02PM 38.0739 -85.4792 90° East 299 344 10,700 2,976 Climbing Indianapolis Center
05:03PM 38.0733 -85.3533 90° East 343 395 13,700 2,976 Climbing Indianapolis Center
05:04PM 37.9834 -84.9813 121° Southeast  Level FlightAware Approximate
05:04PM 38.0628 -85.2158 96° East 382 440 16,800  Level Indianapolis Center
05:05PM 38.0331 -85.0717 105° East 401 461 19,600 2,829 Climbing Indianapolis Center
05:06PM 37.9678 -84.9469 124° Southeast 420 483 22,600 2,634 Climbing Indianapolis Center
05:07PM 37.9047 -84.8175 122° Southeast 426 490 25,000 2,341 Climbing Indianapolis Center
05:08PM 37.8158 -84.7214 139° Southeast 429 494 27,400 2,195 Climbing Indianapolis Center
05:09PM 37.6831 -84.6614 160° South 432 497 29,500 1,756 Climbing Indianapolis Center
05:10PM 37.5647 -84.6092 161° South 444 511 31,000 1,366 Climbing Indianapolis Center
05:11PM 37.4439 -84.5547 160° South 457 526 32,300 1,366 Climbing Indianapolis Center
05:12PM 37.3186 -84.4994 161° South 471 542 33,800 1,317 Climbing Indianapolis Center
05:13PM 37.1944 -84.4444 161° South 471 542 35,000 1,366 Climbing Indianapolis Center
05:14PM 37.0700 -84.3903 161° South 472 543 36,600 976 Climbing Indianapolis Center
05:15PM 36.9467 -84.3394 162° South 471 542 37,000 195 Climbing Indianapolis Center
05:16PM 36.8025 -84.2792 161° South 468 539 37,000  Level Indianapolis Center
05:17PM 36.6778 -84.2242 161° South 469 540 37,000  Level Indianapolis Center
05:18PM 36.5528 -84.1703 161° South 473 544 37,000  Level Indianapolis Center
05:19PM 36.4331 -84.1183 161° South 474 545 37,000  Level Indianapolis Center
05:20PM 36.3069 -84.0642 161° South 475 547 37,000  Level Indianapolis Center
05:21PM 36.1800 -84.0244 166° South 474 545 37,000  Level Indianapolis Center
05:22PM 36.1022 -84.0361 187° South 454 522 37,000  Level Atlanta Center
05:23PM 35.9831 -84.0567 188° South 436 502 37,000  Level Atlanta Center
05:24PM 35.8664 -84.0747 187° South 436 502 37,000  Level Atlanta Center
05:25PM 35.7475 -84.0975 189° South 436 502 37,000  Level Atlanta Center
05:26PM 35.6286 -84.1156 187° South 436 502 37,000  Level Atlanta Center
05:27PM 35.5117 -84.1331 187° South 431 496 37,000  Level Atlanta Center
05:28PM 35.3928 -84.1533 188° South 431 496 37,000  Level Atlanta Center
05:29PM 35.2758 -84.1736 188° South 431 496 37,000  Level Atlanta Center
05:30PM 35.1592 -84.1911 187° South 431 496 37,000  Level Atlanta Center
05:31PM 35.0400 -84.2114 188° South 431 496 37,000  Level Atlanta Center
05:32PM 34.9106 -84.2286 186° South 426 490 37,000  Level Atlanta Center
05:33PM 34.7917 -84.2486 188° South 426 490 37,000  Level Atlanta Center
05:34PM 34.6728 -84.2686 188° South 433 498 37,000  Level Atlanta Center
05:35PM 34.5683 -84.2861 188° South 427 491 37,000  Level Atlanta Center
05:36PM 34.4536 -84.3058 188° South 427 491 37,000  Level Atlanta Center
05:37PM 34.3386 -84.3231 187° South 427 491 37,000  Level Atlanta Center
05:38PM 34.2258 -84.3403 187° South 422 486 37,000  Level Atlanta Center
05:39PM 34.1006 -84.3625 188° South 422 486 37,000  Level Atlanta Center
05:40PM 33.9858 -84.3819 188° South 422 486 37,000 400 Level Atlanta Center
05:41PM 33.8750 -84.3992 187° South 417 480 37,800 700 Climbing Atlanta Center
05:42PM 33.7625 -84.4161 187° South 417 480 38,400 500 Climbing Atlanta Center
05:43PM 33.6433 -84.4331 187° South 418 481 38,800 300 Climbing Atlanta Center
05:44PM 33.5306 -84.4375 182° South 440 506 39,000 100 Climbing Atlanta Center
05:45PM 33.4033 -84.4344 179° South 461 531 39,000  Level Atlanta Center
05:46PM 33.2781 -84.4339 180° South 454 522 39,000  Level Atlanta Center
05:47PM 33.1550 -84.4308 179° South 454 522 39,000  Level Atlanta Center
05:48PM 33.0317 -84.4278 179° South 448 516 39,000  Level Atlanta Center
05:49PM 32.9086 -84.4272 180° South 441 507 39,000  Level Atlanta Center
05:50PM 32.7772 -84.4192 177° South 436 502 39,000  Level Atlanta Center
05:51PM 32.6561 -84.4164 179° South 436 502 39,000  Level Atlanta Center
05:52PM 32.5372 -84.4158 180° South 441 507 39,000  Level Atlanta Center
05:53PM 32.3536 -84.4100 178° South 440 506 39,000  Level Jacksonville Center
05:54PM 32.2367 -84.4106 180° South 417 480 39,000  Level Jacksonville Center
05:55PM 32.1178 -84.4083 179° South 417 480 39,000  Level Jacksonville Center
05:56PM 31.9989 -84.4064 179° South 422 486 39,000  Level Jacksonville Center
05:57PM 31.8819 -84.4022 178° South 422 486 39,000  Level Jacksonville Center
05:58PM 31.7631 -84.4003 179° South 422 486 39,000  Level Jacksonville Center
05:59PM 31.6439 -84.3958 178° South 422 486 39,000  Level Jacksonville Center
06:00PM 31.5250 -84.3964 180° South 422 486 39,000  Level Jacksonville Center
06:01PM 31.4061 -84.3919 178° South 422 486 39,000  Level Jacksonville Center
06:02PM 31.2869 -84.3900 179° South 422 486 39,000  Level Jacksonville Center
06:03PM 31.1661 -84.3808 176° South 422 486 39,000  Level Jacksonville Center
06:04PM 31.0433 -84.3403 164° South 433 498 39,000  Level Jacksonville Center
06:05PM 30.9206 -84.2947 162° South 449 517 39,000  Level Jacksonville Center
06:06PM 30.7981 -84.2517 163° South 459 528 39,000  Level Jacksonville Center
06:07PM 30.6711 -84.2042 162° South 464 534 39,000  Level Jacksonville Center
06:08PM 30.5733 -84.1664 162° South 464 534 39,000  Level Jacksonville Center
06:09PM 30.4297 -84.1164 163° South 459 528 39,000  Level Jacksonville Center
06:10PM 30.3028 -84.0692 162° South 464 534 39,000  Level Jacksonville Center
06:11PM 30.1800 -84.0267 163° South 464 534 39,000  Level Jacksonville Center
06:12PM 30.0553 -83.9822 163° South 469 540 39,000 -350 Level Jacksonville Center
06:13PM 29.9325 -83.9375 162° South 469 540 38,300 -850 Descending Jacksonville Center
06:14PM 29.8158 -83.8908 161° South 464 534 37,300 -1,400 Descending Jacksonville Center
06:15PM 29.6975 -83.8178 152° Southeast 464 534 35,500 -2,000 Descending Jacksonville Center
06:16PM 29.5811 -83.7450 151° Southeast 469 540 33,300 -2,100 Descending Jacksonville Center
06:17PM 29.4708 -83.6725 150° Southeast 464 534 31,300 -1,950 Descending Jacksonville Center
06:18PM 29.3606 -83.6025 151° Southeast 458 527 29,400 -1,900 Descending Jacksonville Center
06:19PM 29.2567 -83.5328 150° Southeast 447 514 27,500 -1,400 Descending Jacksonville Center
06:20PM 29.1547 -83.4681 151° Southeast 435 501 26,600 -1,350 Descending Jacksonville Center
06:21PM 29.0506 -83.4008 151° Southeast 429 494 24,800 -1,800 Descending Jacksonville Center
06:22PM 28.9525 -83.3411 152° Southeast 417 480 23,000 -1,800 Descending Jacksonville Center
06:23PM 28.8569 -83.2814 151° Southeast 404 465 21,200 -1,750 Descending Jacksonville Center
06:24PM 28.7650 -83.2219 150° Southeast 392 451 19,500 -1,700 Descending Jacksonville Center
06:25PM 28.6733 -83.1622 150° Southeast 386 444 17,800 -1,700 Descending Jacksonville Center
06:26PM 28.5858 -83.1100 152° Southeast 370 426 16,100 -1,714 Descending Jacksonville Center
06:27PM 28.5333 -83.0833 156° South 356 410 15,000 -1,776 Descending Tampa TRACON
06:28PM 28.4500 -83.0167 145° Southeast 348 400 13,200 -1,400 Descending Tampa TRACON
06:29PM 28.3667 -82.9667 152° Southeast 329 379 12,200 -1,250 Descending Tampa TRACON
06:30PM 28.2833 -82.9167 152° Southeast 306 352 10,700 -1,450 Descending Tampa TRACON
06:31PM 28.2667 -82.8333 103° East 314 361 9,300 -1,350 Descending Tampa TRACON
06:32PM 28.2833 -82.7333 79° East 306 352 8,000 -1,450 Descending Tampa TRACON
06:33PM 28.2833 -82.6333 90° East 291 335 6,400 -1,600 Descending Tampa TRACON
06:34PM 28.2333 -82.5833 139° Southeast 256 295 4,800 -1,700 Descending Tampa TRACON
06:35PM 28.1667 -82.5500 156° South 255 293 3,000 -1,000 Descending Tampa TRACON
06:36PM 28.1167 -82.5333 164° South 202 232 2,800 -700 Descending Tampa TRACON
06:37PM 28.0667 -82.5333 180° South 163 188 1,600 -1,000 Descending Tampa TRACON
06:38PM 28.0167 -82.5333 180° South 142 163 700 -818 Descending Tampa TRACON